Elm Grove, Louisiana
Current Conditions -  °F | °C
As of 10:53 PM on Sunday 21 Dec 2014 (Local Time) from KDTN Reporting Station
Few Clouds Few Clouds  
Wind Chill: 43°   Ceiling: Unl
Heat Index: 47°   Visibility: 10mi
Dew Point: 44°   Wind: 8mph
Humidity: 90%   Direction: 150°SSE
Pressure: 29.86"   Gusts: NA
Location:  32.35°N, 93.55°W
Report Text: KDTN 220453Z AUTO 15007KT 10SM FEW012 08/07 A2986 RMK AO2 SLP112 T00830067 $
Loading
Personal Weather Stations






























Interactive Weather Map New forecast layout! Learn more

10-Day Weather Forecast

Advertisements
Track Severe Weather on mobile